sensor_id;sensor_type;location;lat;lon;timestamp;temperature;humidity
9762;DHT22;4920;49.594;11.022;2023-07-29T00:01:50;17.60;99.90
9762;DHT22;4920;49.594;11.022;2023-07-29T00:04:21;17.60;99.90
9762;DHT22;4920;49.594;11.022;2023-07-29T00:06:50;17.60;99.90
9762;DHT22;4920;49.594;11.022;2023-07-29T00:09:18;17.60;99.90
9762;DHT22;4920;49.594;11.022;2023-07-29T00:11:49;17.60;99.90
9762;DHT22;4920;49.594;11.022;2023-07-29T00:14:18;17.60;99.90
9762;DHT22;4920;49.594;11.022;2023-07-29T00:16:49;17.60;99.90
9762;DHT22;4920;49.594;11.022;2023-07-29T00:19:18;17.60;99.90
9762;DHT22;4920;49.594;11.022;2023-07-29T00:21:50;17.60;99.90
9762;DHT22;4920;49.594;11.022;2023-07-29T00:24:19;17.60;99.90
9762;DHT22;4920;49.594;11.022;2023-07-29T00:26:50;17.60;99.90
9762;DHT22;4920;49.594;11.022;2023-07-29T00:29:20;17.50;99.90
9762;DHT22;4920;49.594;11.022;2023-07-29T00:31:51;17.50;99.90
9762;DHT22;4920;49.594;11.022;2023-07-29T00:34:20;17.50;99.90
9762;DHT22;4920;49.594;11.022;2023-07-29T00:36:49;17.50;99.90
9762;DHT22;4920;49.594;11.022;2023-07-29T00:39:18;17.50;99.90
9762;DHT22;4920;49.594;11.022;2023-07-29T00:41:47;17.40;99.90
9762;DHT22;4920;49.594;11.022;2023-07-29T00:44:18;17.50;99.90
9762;DHT22;4920;49.594;11.022;2023-07-29T00:46:47;17.50;99.90
9762;DHT22;4920;49.594;11.022;2023-07-29T00:49:20;17.50;99.90
9762;DHT22;4920;49.594;11.022;2023-07-29T00:51:50;17.50;99.90
9762;DHT22;4920;49.594;11.022;2023-07-29T00:54:19;17.40;99.90
9762;DHT22;4920;49.594;11.022;2023-07-29T00:56:48;17.40;99.90
9762;DHT22;4920;49.594;11.022;2023-07-29T00:59:18;17.40;99.90
9762;DHT22;4920;49.594;11.022;2023-07-29T01:01:47;17.40;99.90
9762;DHT22;4920;49.594;11.022;2023-07-29T01:04:16;17.40;99.90
9762;DHT22;4920;49.594;11.022;2023-07-29T01:06:53;17.30;99.90
9762;DHT22;4920;49.594;11.022;2023-07-29T01:09:33;17.30;99.90
9762;DHT22;4920;49.594;11.022;2023-07-29T01:12:08;17.20;99.90
9762;DHT22;4920;49.594;11.022;2023-07-29T01:14:48;17.20;99.90
9762;DHT22;4920;49.594;11.022;2023-07-29T01:17:23;17.10;99.90
9762;DHT22;4920;49.594;11.022;2023-07-29T01:20:00;17.10;99.90
9762;DHT22;4920;49.594;11.022;2023-07-29T01:22:31;17.10;99.90
9762;DHT22;4920;49.594;11.022;2023-07-29T01:25:02;17.10;99.90
9762;DHT22;4920;49.594;11.022;2023-07-29T01:27:31;17.10;99.90
9762;DHT22;4920;49.594;11.022;2023-07-29T01:30:01;17.20;99.90
9762;DHT22;4920;49.594;11.022;2023-07-29T01:32:37;17.20;99.90
9762;DHT22;4920;49.594;11.022;2023-07-29T01:35:15;17.20;99.90
9762;DHT22;4920;49.594;11.022;2023-07-29T01:37:49;17.20;99.90
9762;DHT22;4920;49.594;11.022;2023-07-29T01:40:22;17.10;99.90
9762;DHT22;4920;49.594;11.022;2023-07-29T01:42:52;17.10;99.90
9762;DHT22;4920;49.594;11.022;2023-07-29T01:45:23;17.00;99.90
9762;DHT22;4920;49.594;11.022;2023-07-29T01:47:53;16.90;99.90
9762;DHT22;4920;49.594;11.022;2023-07-29T01:50:22;16.90;99.90
9762;DHT22;4920;49.594;11.022;2023-07-29T01:52:51;16.80;99.90
9762;DHT22;4920;49.594;11.022;2023-07-29T01:55:21;16.70;99.90
9762;DHT22;4920;49.594;11.022;2023-07-29T01:57:51;16.70;99.90
9762;DHT22;4920;49.594;11.022;2023-07-29T02:00:22;16.70;99.90
9762;DHT22;4920;49.594;11.022;2023-07-29T02:02:51;16.60;99.90
9762;DHT22;4920;49.594;11.022;2023-07-29T02:05:20;16.60;99.90
9762;DHT22;4920;49.594;11.022;2023-07-29T02:07:50;16.50;99.90
9762;DHT22;4920;49.594;11.022;2023-07-29T02:10:21;16.50;99.90
9762;DHT22;4920;49.594;11.022;2023-07-29T02:12:50;16.50;99.90
9762;DHT22;4920;49.594;11.022;2023-07-29T02:15:18;16.40;99.90
9762;DHT22;4920;49.594;11.022;2023-07-29T02:17:50;16.40;99.90
9762;DHT22;4920;49.594;11.022;2023-07-29T02:20:19;16.40;99.90
9762;DHT22;4920;49.594;11.022;2023-07-29T02:22:50;16.30;99.90
9762;DHT22;4920;49.594;11.022;2023-07-29T02:25:20;16.30;99.90
9762;DHT22;4920;49.594;11.022;2023-07-29T02:27:49;16.30;99.90
9762;DHT22;4920;49.594;11.022;2023-07-29T02:30:18;16.30;99.90
9762;DHT22;4920;49.594;11.022;2023-07-29T02:32:47;16.20;99.90
9762;DHT22;4920;49.594;11.022;2023-07-29T02:35:16;16.20;99.90
9762;DHT22;4920;49.594;11.022;2023-07-29T02:37:45;16.10;99.90
9762;DHT22;4920;49.594;11.022;2023-07-29T02:40:14;16.10;99.90
9762;DHT22;4920;49.594;11.022;2023-07-29T02:42:45;16.10;99.90
9762;DHT22;4920;49.594;11.022;2023-07-29T02:45:13;16.10;99.90
9762;DHT22;4920;49.594;11.022;2023-07-29T02:47:42;16.10;99.90
9762;DHT22;4920;49.594;11.022;2023-07-29T02:50:11;16.10;99.90
9762;DHT22;4920;49.594;11.022;2023-07-29T02:52:40;16.10;99.90
9762;DHT22;4920;49.594;11.022;2023-07-29T02:55:09;16.00;99.90
9762;DHT22;4920;49.594;11.022;2023-07-29T02:57:38;16.00;99.90
9762;DHT22;4920;49.594;11.022;2023-07-29T03:00:10;15.90;99.90
9762;DHT22;4920;49.594;11.022;2023-07-29T03:02:39;15.90;99.90
9762;DHT22;4920;49.594;11.022;2023-07-29T03:05:08;15.90;99.90
9762;DHT22;4920;49.594;11.022;2023-07-29T03:07:37;15.80;99.90
9762;DHT22;4920;49.594;11.022;2023-07-29T03:10:07;15.80;99.90
9762;DHT22;4920;49.594;11.022;2023-07-29T03:12:36;15.70;99.90
9762;DHT22;4920;49.594;11.022;2023-07-29T03:15:06;15.70;99.90
9762;DHT22;4920;49.594;11.022;2023-07-29T03:17:36;15.70;99.90
9762;DHT22;4920;49.594;11.022;2023-07-29T03:20:06;15.60;99.90
9762;DHT22;4920;49.594;11.022;2023-07-29T03:22:35;15.60;99.90
9762;DHT22;4920;49.594;11.022;2023-07-29T03:25:05;15.50;99.90
9762;DHT22;4920;49.594;11.022;2023-07-29T03:27:34;15.50;99.90
9762;DHT22;4920;49.594;11.022;2023-07-29T03:30:04;15.50;99.90
9762;DHT22;4920;49.594;11.022;2023-07-29T03:32:37;15.40;99.90
9762;DHT22;4920;49.594;11.022;2023-07-29T03:35:06;15.40;99.90
9762;DHT22;4920;49.594;11.022;2023-07-29T03:37:39;15.40;99.90
9762;DHT22;4920;49.594;11.022;2023-07-29T03:40:09;15.40;99.90
9762;DHT22;4920;49.594;11.022;2023-07-29T03:42:38;15.40;99.90
9762;DHT22;4920;49.594;11.022;2023-07-29T03:45:07;15.50;99.90
9762;DHT22;4920;49.594;11.022;2023-07-29T03:47:38;15.60;99.90
9762;DHT22;4920;49.594;11.022;2023-07-29T03:50:08;15.60;99.90
9762;DHT22;4920;49.594;11.022;2023-07-29T03:52:37;15.60;99.90
9762;DHT22;4920;49.594;11.022;2023-07-29T03:55:07;15.70;99.90
9762;DHT22;4920;49.594;11.022;2023-07-29T03:57:36;15.80;99.90
9762;DHT22;4920;49.594;11.022;2023-07-29T04:00:06;15.80;99.90
9762;DHT22;4920;49.594;11.022;2023-07-29T04:02:48;15.90;99.90
9762;DHT22;4920;49.594;11.022;2023-07-29T04:05:18;16.00;99.90
9762;DHT22;4920;49.594;11.022;2023-07-29T04:07:47;16.00;99.90
9762;DHT22;4920;49.594;11.022;2023-07-29T04:10:16;16.10;99.90
9762;DHT22;4920;49.594;11.022;2023-07-29T04:12:45;16.20;99.90
9762;DHT22;4920;49.594;11.022;2023-07-29T04:15:14;16.30;99.90
9762;DHT22;4920;49.594;11.022;2023-07-29T04:17:43;16.30;99.90
9762;DHT22;4920;49.594;11.022;2023-07-29T04:20:14;16.40;99.90
9762;DHT22;4920;49.594;11.022;2023-07-29T04:22:43;16.50;99.90
9762;DHT22;4920;49.594;11.022;2023-07-29T04:25:12;16.60;99.90
9762;DHT22;4920;49.594;11.022;2023-07-29T04:27:41;16.60;99.90
9762;DHT22;4920;49.594;11.022;2023-07-29T04:30:10;16.80;99.90
9762;DHT22;4920;49.594;11.022;2023-07-29T04:32:39;16.90;99.90
9762;DHT22;4920;49.594;11.022;2023-07-29T04:35:09;17.00;99.90
9762;DHT22;4920;49.594;11.022;2023-07-29T04:37:39;17.20;99.90
9762;DHT22;4920;49.594;11.022;2023-07-29T04:40:09;17.40;99.90
9762;DHT22;4920;49.594;11.022;2023-07-29T04:42:38;17.60;99.90
9762;DHT22;4920;49.594;11.022;2023-07-29T04:45:09;17.90;99.90
9762;DHT22;4920;49.594;11.022;2023-07-29T04:47:38;18.20;99.90
9762;DHT22;4920;49.594;11.022;2023-07-29T04:50:08;18.40;99.90
9762;DHT22;4920;49.594;11.022;2023-07-29T04:52:38;18.60;99.90
9762;DHT22;4920;49.594;11.022;2023-07-29T04:55:07;18.70;99.90
9762;DHT22;4920;49.594;11.022;2023-07-29T04:57:36;18.80;99.90
9762;DHT22;4920;49.594;11.022;2023-07-29T05:00:06;19.10;99.90
9762;DHT22;4920;49.594;11.022;2023-07-29T05:02:35;19.40;99.90
9762;DHT22;4920;49.594;11.022;2023-07-29T05:05:05;19.70;99.90
9762;DHT22;4920;49.594;11.022;2023-07-29T05:07:35;19.90;99.90
9762;DHT22;4920;49.594;11.022;2023-07-29T05:10:07;19.90;99.90
9762;DHT22;4920;49.594;11.022;2023-07-29T05:12:36;19.90;99.90
9762;DHT22;4920;49.594;11.022;2023-07-29T05:15:06;20.00;99.90
9762;DHT22;4920;49.594;11.022;2023-07-29T05:17:35;19.90;99.90
9762;DHT22;4920;49.594;11.022;2023-07-29T05:20:05;19.90;99.90
9762;DHT22;4920;49.594;11.022;2023-07-29T05:22:34;19.80;99.90
9762;DHT22;4920;49.594;11.022;2023-07-29T05:25:06;19.80;99.90
9762;DHT22;4920;49.594;11.022;2023-07-29T05:27:35;19.70;99.90
9762;DHT22;4920;49.594;11.022;2023-07-29T05:30:05;19.70;99.90
9762;DHT22;4920;49.594;11.022;2023-07-29T05:32:34;19.60;99.90
9762;DHT22;4920;49.594;11.022;2023-07-29T05:35:04;19.60;99.90
9762;DHT22;4920;49.594;11.022;2023-07-29T05:37:33;19.50;99.90
9762;DHT22;4920;49.594;11.022;2023-07-29T05:40:01;19.50;99.90
9762;DHT22;4920;49.594;11.022;2023-07-29T05:42:32;19.50;99.90
9762;DHT22;4920;49.594;11.022;2023-07-29T05:48:27;19.60;99.90
9762;DHT22;4920;49.594;11.022;2023-07-29T05:51:01;19.80;99.90
9762;DHT22;4920;49.594;11.022;2023-07-29T05:53:30;19.90;99.90
9762;DHT22;4920;49.594;11.022;2023-07-29T05:56:01;20.20;99.90
9762;DHT22;4920;49.594;11.022;2023-07-29T05:58:31;20.40;99.90
9762;DHT22;4920;49.594;11.022;2023-07-29T06:01:00;20.60;99.90
9762;DHT22;4920;49.594;11.022;2023-07-29T06:03:29;20.70;99.90
9762;DHT22;4920;49.594;11.022;2023-07-29T06:05:58;20.70;99.90
9762;DHT22;4920;49.594;11.022;2023-07-29T06:08:27;20.70;99.90
9762;DHT22;4920;49.594;11.022;2023-07-29T06:10:56;20.50;99.90
9762;DHT22;4920;49.594;11.022;2023-07-29T06:13:25;20.40;99.90
9762;DHT22;4920;49.594;11.022;2023-07-29T06:15:56;20.20;99.90
9762;DHT22;4920;49.594;11.022;2023-07-29T06:18:25;20.10;99.90
9762;DHT22;4920;49.594;11.022;2023-07-29T06:20:54;19.80;99.90
9762;DHT22;4920;49.594;11.022;2023-07-29T06:23:50;19.70;99.90
9762;DHT22;4920;49.594;11.022;2023-07-29T06:26:20;19.50;99.90
9762;DHT22;4920;49.594;11.022;2023-07-29T06:28:49;19.40;99.90
9762;DHT22;4920;49.594;11.022;2023-07-29T06:31:19;19.30;99.90
9762;DHT22;4920;49.594;11.022;2023-07-29T06:33:48;19.20;99.90
9762;DHT22;4920;49.594;11.022;2023-07-29T06:36:17;19.30;99.90
9762;DHT22;4920;49.594;11.022;2023-07-29T06:38:45;19.30;99.90
9762;DHT22;4920;49.594;11.022;2023-07-29T06:41:14;19.30;99.90
9762;DHT22;4920;49.594;11.022;2023-07-29T06:43:46;19.40;99.90
9762;DHT22;4920;49.594;11.022;2023-07-29T06:46:15;19.40;99.90
9762;DHT22;4920;49.594;11.022;2023-07-29T06:48:46;19.30;99.90
9762;DHT22;4920;49.594;11.022;2023-07-29T06:51:15;19.10;99.90
9762;DHT22;4920;49.594;11.022;2023-07-29T06:53:43;18.80;99.90
9762;DHT22;4920;49.594;11.022;2023-07-29T06:56:18;18.60;99.90
9762;DHT22;4920;49.594;11.022;2023-07-29T06:58:47;18.30;99.90
9762;DHT22;4920;49.594;11.022;2023-07-29T07:01:15;18.20;99.90
9762;DHT22;4920;49.594;11.022;2023-07-29T07:03:46;18.10;99.90
9762;DHT22;4920;49.594;11.022;2023-07-29T07:06:15;18.00;99.90
9762;DHT22;4920;49.594;11.022;2023-07-29T07:08:50;17.90;99.90
9762;DHT22;4920;49.594;11.022;2023-07-29T07:11:19;17.90;99.90
9762;DHT22;4920;49.594;11.022;2023-07-29T07:13:48;17.80;99.90
9762;DHT22;4920;49.594;11.022;2023-07-29T07:16:17;17.80;99.90
9762;DHT22;4920;49.594;11.022;2023-07-29T07:18:47;17.80;99.90
9762;DHT22;4920;49.594;11.022;2023-07-29T07:21:16;17.80;99.90
9762;DHT22;4920;49.594;11.022;2023-07-29T07:23:45;17.80;99.90
9762;DHT22;4920;49.594;11.022;2023-07-29T07:26:13;17.90;99.90
9762;DHT22;4920;49.594;11.022;2023-07-29T07:28:42;17.90;99.90
9762;DHT22;4920;49.594;11.022;2023-07-29T07:31:14;18.00;99.90
9762;DHT22;4920;49.594;11.022;2023-07-29T07:33:48;18.10;99.90
9762;DHT22;4920;49.594;11.022;2023-07-29T07:36:35;18.20;99.90
9762;DHT22;4920;49.594;11.022;2023-07-29T07:39:05;18.30;99.90
9762;DHT22;4920;49.594;11.022;2023-07-29T07:41:34;18.50;99.90
9762;DHT22;4920;49.594;11.022;2023-07-29T07:44:03;18.70;99.90
9762;DHT22;4920;49.594;11.022;2023-07-29T07:46:32;18.80;99.90
9762;DHT22;4920;49.594;11.022;2023-07-29T07:49:03;18.90;99.90
9762;DHT22;4920;49.594;11.022;2023-07-29T07:51:32;19.00;99.90
9762;DHT22;4920;49.594;11.022;2023-07-29T07:54:01;19.00;99.90
9762;DHT22;4920;49.594;11.022;2023-07-29T07:56:30;19.10;99.90
9762;DHT22;4920;49.594;11.022;2023-07-29T07:58:59;19.20;99.90
9762;DHT22;4920;49.594;11.022;2023-07-29T08:01:27;19.20;99.90
9762;DHT22;4920;49.594;11.022;2023-07-29T08:03:56;19.30;99.90
9762;DHT22;4920;49.594;11.022;2023-07-29T08:06:27;19.30;99.90
9762;DHT22;4920;49.594;11.022;2023-07-29T08:08:55;19.20;99.90
9762;DHT22;4920;49.594;11.022;2023-07-29T08:11:25;19.20;99.90
9762;DHT22;4920;49.594;11.022;2023-07-29T08:13:54;19.20;99.90
9762;DHT22;4920;49.594;11.022;2023-07-29T08:16:23;19.20;99.90
9762;DHT22;4920;49.594;11.022;2023-07-29T08:18:51;19.30;99.90
9762;DHT22;4920;49.594;11.022;2023-07-29T08:21:20;19.40;99.90
9762;DHT22;4920;49.594;11.022;2023-07-29T08:23:50;19.50;99.90
9762;DHT22;4920;49.594;11.022;2023-07-29T08:26:19;19.50;99.90
9762;DHT22;4920;49.594;11.022;2023-07-29T08:28:48;19.60;99.90
9762;DHT22;4920;49.594;11.022;2023-07-29T08:31:21;19.60;99.90
9762;DHT22;4920;49.594;11.022;2023-07-29T08:33:50;19.60;99.90
9762;DHT22;4920;49.594;11.022;2023-07-29T08:36:19;19.60;99.90
9762;DHT22;4920;49.594;11.022;2023-07-29T08:38:49;19.70;99.90
9762;DHT22;4920;49.594;11.022;2023-07-29T08:41:21;19.80;99.90
9762;DHT22;4920;49.594;11.022;2023-07-29T08:43:59;19.80;99.90
9762;DHT22;4920;49.594;11.022;2023-07-29T08:46:30;19.80;99.90
9762;DHT22;4920;49.594;11.022;2023-07-29T08:48:59;20.00;99.90
9762;DHT22;4920;49.594;11.022;2023-07-29T08:51:31;20.00;99.90
9762;DHT22;4920;49.594;11.022;2023-07-29T08:54:02;20.00;99.90
9762;DHT22;4920;49.594;11.022;2023-07-29T08:56:30;20.10;99.90
9762;DHT22;4920;49.594;11.022;2023-07-29T08:59:00;20.20;99.90
9762;DHT22;4920;49.594;11.022;2023-07-29T09:01:29;20.20;99.90
9762;DHT22;4920;49.594;11.022;2023-07-29T09:03:58;20.30;99.90
9762;DHT22;4920;49.594;11.022;2023-07-29T09:06:27;20.30;99.90
9762;DHT22;4920;49.594;11.022;2023-07-29T09:08:56;20.40;99.90
9762;DHT22;4920;49.594;11.022;2023-07-29T09:11:28;20.50;99.90
9762;DHT22;4920;49.594;11.022;2023-07-29T09:13:57;20.60;99.90
9762;DHT22;4920;49.594;11.022;2023-07-29T09:16:26;20.80;99.90
9762;DHT22;4920;49.594;11.022;2023-07-29T09:18:55;20.90;99.90
9762;DHT22;4920;49.594;11.022;2023-07-29T09:21:24;21.00;99.90
9762;DHT22;4920;49.594;11.022;2023-07-29T09:23:56;21.00;99.90
9762;DHT22;4920;49.594;11.022;2023-07-29T09:26:25;21.10;99.90
9762;DHT22;4920;49.594;11.022;2023-07-29T09:28:57;21.00;99.90
9762;DHT22;4920;49.594;11.022;2023-07-29T09:31:27;20.80;99.90
9762;DHT22;4920;49.594;11.022;2023-07-29T09:33:57;20.60;99.90
9762;DHT22;4920;49.594;11.022;2023-07-29T09:36:29;20.40;99.90
9762;DHT22;4920;49.594;11.022;2023-07-29T09:38:59;20.30;99.90
9762;DHT22;4920;49.594;11.022;2023-07-29T09:41:29;20.20;99.90
9762;DHT22;4920;49.594;11.022;2023-07-29T09:44:01;20.10;99.90
9762;DHT22;4920;49.594;11.022;2023-07-29T09:46:32;20.40;99.90
9762;DHT22;4920;49.594;11.022;2023-07-29T09:49:05;20.70;99.90
9762;DHT22;4920;49.594;11.022;2023-07-29T09:51:38;21.20;99.90
9762;DHT22;4920;49.594;11.022;2023-07-29T09:54:08;21.70;99.90
9762;DHT22;4920;49.594;11.022;2023-07-29T09:56:41;22.20;99.90
9762;DHT22;4920;49.594;11.022;2023-07-29T09:59:13;22.80;99.90
9762;DHT22;4920;49.594;11.022;2023-07-29T10:01:42;23.40;99.90
9762;DHT22;4920;49.594;11.022;2023-07-29T10:04:12;23.90;99.90
9762;DHT22;4920;49.594;11.022;2023-07-29T10:06:42;24.40;99.90
9762;DHT22;4920;49.594;11.022;2023-07-29T10:09:11;24.70;99.90
9762;DHT22;4920;49.594;11.022;2023-07-29T10:11:41;25.10;99.90
9762;DHT22;4920;49.594;11.022;2023-07-29T10:14:12;25.40;99.90
9762;DHT22;4920;49.594;11.022;2023-07-29T10:16:42;26.00;99.90
9762;DHT22;4920;49.594;11.022;2023-07-29T10:19:14;26.70;99.90
9762;DHT22;4920;49.594;11.022;2023-07-29T10:21:48;27.40;99.90
9762;DHT22;4920;49.594;11.022;2023-07-29T10:24:19;27.90;99.90
9762;DHT22;4920;49.594;11.022;2023-07-29T10:26:57;28.30;99.90
9762;DHT22;4920;49.594;11.022;2023-07-29T10:29:31;28.40;99.90
9762;DHT22;4920;49.594;11.022;2023-07-29T10:32:02;28.20;99.90
9762;DHT22;4920;49.594;11.022;2023-07-29T10:34:32;27.70;99.90
9762;DHT22;4920;49.594;11.022;2023-07-29T10:37:01;27.10;99.90
9762;DHT22;4920;49.594;11.022;2023-07-29T10:39:38;26.60;99.90
9762;DHT22;4920;49.594;11.022;2023-07-29T10:42:07;26.00;99.90
9762;DHT22;4920;49.594;11.022;2023-07-29T10:44:53;25.80;99.90
9762;DHT22;4920;49.594;11.022;2023-07-29T10:47:22;25.70;99.90
9762;DHT22;4920;49.594;11.022;2023-07-29T10:49:53;25.60;99.90
9762;DHT22;4920;49.594;11.022;2023-07-29T10:52:31;25.70;99.90
9762;DHT22;4920;49.594;11.022;2023-07-29T10:55:00;25.60;99.90
9762;DHT22;4920;49.594;11.022;2023-07-29T10:57:32;25.60;99.90
9762;DHT22;4920;49.594;11.022;2023-07-29T11:00:03;25.60;99.90
9762;DHT22;4920;49.594;11.022;2023-07-29T11:02:35;25.60;99.90
9762;DHT22;4920;49.594;11.022;2023-07-29T11:05:05;25.80;99.90
9762;DHT22;4920;49.594;11.022;2023-07-29T11:07:43;26.10;99.90
9762;DHT22;4920;49.594;11.022;2023-07-29T11:10:13;26.40;99.90
9762;DHT22;4920;49.594;11.022;2023-07-29T11:12:44;26.50;99.90
9762;DHT22;4920;49.594;11.022;2023-07-29T11:15:18;26.50;99.90
9762;DHT22;4920;49.594;11.022;2023-07-29T11:17:48;26.40;99.90
9762;DHT22;4920;49.594;11.022;2023-07-29T11:20:19;26.10;99.90
9762;DHT22;4920;49.594;11.022;2023-07-29T11:22:49;25.70;99.90
9762;DHT22;4920;49.594;11.022;2023-07-29T11:25:18;25.20;99.90
9762;DHT22;4920;49.594;11.022;2023-07-29T11:27:48;24.80;99.90
9762;DHT22;4920;49.594;11.022;2023-07-29T11:30:18;24.40;99.90
9762;DHT22;4920;49.594;11.022;2023-07-29T11:32:47;24.20;99.90
9762;DHT22;4920;49.594;11.022;2023-07-29T11:35:17;24.00;99.90
9762;DHT22;4920;49.594;11.022;2023-07-29T11:37:47;23.90;99.90
9762;DHT22;4920;49.594;11.022;2023-07-29T11:40:18;23.80;99.90
9762;DHT22;4920;49.594;11.022;2023-07-29T11:42:49;23.80;99.90
9762;DHT22;4920;49.594;11.022;2023-07-29T11:45:20;23.90;99.90
9762;DHT22;4920;49.594;11.022;2023-07-29T11:48:01;23.90;99.90
9762;DHT22;4920;49.594;11.022;2023-07-29T11:50:30;24.10;99.90
9762;DHT22;4920;49.594;11.022;2023-07-29T11:53:00;24.10;99.90
9762;DHT22;4920;49.594;11.022;2023-07-29T11:55:29;24.10;99.90
9762;DHT22;4920;49.594;11.022;2023-07-29T11:57:58;24.10;99.90
9762;DHT22;4920;49.594;11.022;2023-07-29T12:00:29;24.20;99.90
9762;DHT22;4920;49.594;11.022;2023-07-29T12:02:58;24.20;99.90
9762;DHT22;4920;49.594;11.022;2023-07-29T12:05:28;24.20;99.90
9762;DHT22;4920;49.594;11.022;2023-07-29T12:07:57;24.30;99.90
9762;DHT22;4920;49.594;11.022;2023-07-29T12:10:26;24.40;99.90
9762;DHT22;4920;49.594;11.022;2023-07-29T12:12:55;24.50;99.90
9762;DHT22;4920;49.594;11.022;2023-07-29T12:15:24;24.60;99.90
9762;DHT22;4920;49.594;11.022;2023-07-29T12:17:56;24.70;99.90
9762;DHT22;4920;49.594;11.022;2023-07-29T12:20:27;24.80;99.90
9762;DHT22;4920;49.594;11.022;2023-07-29T12:22:59;24.80;99.90
9762;DHT22;4920;49.594;11.022;2023-07-29T12:25:29;24.90;99.90
9762;DHT22;4920;49.594;11.022;2023-07-29T12:28:02;25.20;99.90
9762;DHT22;4920;49.594;11.022;2023-07-29T12:30:31;25.70;99.90
9762;DHT22;4920;49.594;11.022;2023-07-29T12:33:02;26.30;99.90
9762;DHT22;4920;49.594;11.022;2023-07-29T12:35:36;26.70;99.90
9762;DHT22;4920;49.594;11.022;2023-07-29T12:38:05;27.00;99.90
9762;DHT22;4920;49.594;11.022;2023-07-29T12:40:38;27.10;99.90
9762;DHT22;4920;49.594;11.022;2023-07-29T12:43:07;27.10;99.90
9762;DHT22;4920;49.594;11.022;2023-07-29T12:45:36;27.10;99.90
9762;DHT22;4920;49.594;11.022;2023-07-29T12:48:09;27.00;99.90
9762;DHT22;4920;49.594;11.022;2023-07-29T12:50:38;27.10;99.90
9762;DHT22;4920;49.594;11.022;2023-07-29T12:53:07;27.20;99.90
9762;DHT22;4920;49.594;11.022;2023-07-29T12:55:37;27.30;99.90
9762;DHT22;4920;49.594;11.022;2023-07-29T12:58:06;27.30;99.90
9762;DHT22;4920;49.594;11.022;2023-07-29T13:00:34;27.20;99.90
9762;DHT22;4920;49.594;11.022;2023-07-29T13:03:03;27.20;99.90
9762;DHT22;4920;49.594;11.022;2023-07-29T13:05:34;27.10;99.90
9762;DHT22;4920;49.594;11.022;2023-07-29T13:08:03;27.20;99.90
9762;DHT22;4920;49.594;11.022;2023-07-29T13:10:32;27.40;99.90
9762;DHT22;4920;49.594;11.022;2023-07-29T13:13:01;27.60;99.90
9762;DHT22;4920;49.594;11.022;2023-07-29T13:15:29;28.00;99.90
9762;DHT22;4920;49.594;11.022;2023-07-29T13:17:58;28.30;99.90
9762;DHT22;4920;49.594;11.022;2023-07-29T13:20:27;28.30;99.90
9762;DHT22;4920;49.594;11.022;2023-07-29T13:22:58;28.20;99.90
9762;DHT22;4920;49.594;11.022;2023-07-29T13:25:26;28.10;99.90
9762;DHT22;4920;49.594;11.022;2023-07-29T13:27:55;28.10;99.90
9762;DHT22;4920;49.594;11.022;2023-07-29T13:30:24;28.10;99.90
9762;DHT22;4920;49.594;11.022;2023-07-29T13:32:53;28.20;99.90
9762;DHT22;4920;49.594;11.022;2023-07-29T13:35:21;28.10;99.90
9762;DHT22;4920;49.594;11.022;2023-07-29T13:37:50;28.00;99.90
9762;DHT22;4920;49.594;11.022;2023-07-29T13:40:20;27.90;99.90
9762;DHT22;4920;49.594;11.022;2023-07-29T13:42:49;28.00;99.90
9762;DHT22;4920;49.594;11.022;2023-07-29T13:45:19;28.30;99.90
9762;DHT22;4920;49.594;11.022;2023-07-29T13:47:48;28.50;99.90
9762;DHT22;4920;49.594;11.022;2023-07-29T13:50:17;28.70;99.90
9762;DHT22;4920;49.594;11.022;2023-07-29T13:52:46;28.80;99.90
9762;DHT22;4920;49.594;11.022;2023-07-29T13:55:15;28.80;99.90
9762;DHT22;4920;49.594;11.022;2023-07-29T13:57:45;28.80;99.90
9762;DHT22;4920;49.594;11.022;2023-07-29T14:00:14;28.80;99.90
9762;DHT22;4920;49.594;11.022;2023-07-29T14:02:43;28.80;99.90
9762;DHT22;4920;49.594;11.022;2023-07-29T14:05:12;28.70;99.90
9762;DHT22;4920;49.594;11.022;2023-07-29T14:07:41;28.70;99.70
9762;DHT22;4920;49.594;11.022;2023-07-29T14:10:10;28.80;99.70
9762;DHT22;4920;49.594;11.022;2023-07-29T14:12:39;28.70;98.70
9762;DHT22;4920;49.594;11.022;2023-07-29T14:15:09;28.40;98.80
9762;DHT22;4920;49.594;11.022;2023-07-29T14:17:38;28.20;99.20
9762;DHT22;4920;49.594;11.022;2023-07-29T14:20:07;28.10;99.00
9762;DHT22;4920;49.594;11.022;2023-07-29T14:22:36;28.00;99.60
9762;DHT22;4920;49.594;11.022;2023-07-29T14:25:06;28.00;99.60
9762;DHT22;4920;49.594;11.022;2023-07-29T14:27:35;28.00;98.90
9762;DHT22;4920;49.594;11.022;2023-07-29T14:30:05;28.10;99.00
9762;DHT22;4920;49.594;11.022;2023-07-29T14:32:35;28.10;99.00
9762;DHT22;4920;49.594;11.022;2023-07-29T14:35:05;28.00;99.00
9762;DHT22;4920;49.594;11.022;2023-07-29T14:37:35;28.00;99.20
9762;DHT22;4920;49.594;11.022;2023-07-29T14:40:06;28.20;98.30
9762;DHT22;4920;49.594;11.022;2023-07-29T14:42:34;28.20;97.70
9762;DHT22;4920;49.594;11.022;2023-07-29T14:45:04;28.30;97.50
9762;DHT22;4920;49.594;11.022;2023-07-29T14:47:33;28.40;97.70
9762;DHT22;4920;49.594;11.022;2023-07-29T14:50:04;28.40;96.90
9762;DHT22;4920;49.594;11.022;2023-07-29T14:52:33;28.40;96.60
9762;DHT22;4920;49.594;11.022;2023-07-29T14:55:02;28.60;96.40
9762;DHT22;4920;49.594;11.022;2023-07-29T14:57:31;28.80;95.90
9762;DHT22;4920;49.594;11.022;2023-07-29T14:59:59;29.00;95.60
9762;DHT22;4920;49.594;11.022;2023-07-29T15:02:28;29.20;95.40
9762;DHT22;4920;49.594;11.022;2023-07-29T15:04:57;29.30;95.60
9762;DHT22;4920;49.594;11.022;2023-07-29T15:07:27;29.40;94.90
9762;DHT22;4920;49.594;11.022;2023-07-29T15:09:56;29.30;95.00
9762;DHT22;4920;49.594;11.022;2023-07-29T15:12:27;29.10;95.20
9762;DHT22;4920;49.594;11.022;2023-07-29T15:14:56;28.80;94.80
9762;DHT22;4920;49.594;11.022;2023-07-29T15:17:25;28.60;95.70
9762;DHT22;4920;49.594;11.022;2023-07-29T15:19:53;28.40;95.20
9762;DHT22;4920;49.594;11.022;2023-07-29T15:22:22;28.20;95.40
9762;DHT22;4920;49.594;11.022;2023-07-29T15:24:52;27.90;95.20
9762;DHT22;4920;49.594;11.022;2023-07-29T15:27:21;27.70;95.30
9762;DHT22;4920;49.594;11.022;2023-07-29T15:29:50;27.70;95.30
9762;DHT22;4920;49.594;11.022;2023-07-29T15:32:19;27.70;95.50
9762;DHT22;4920;49.594;11.022;2023-07-29T15:34:48;27.70;95.10
9762;DHT22;4920;49.594;11.022;2023-07-29T15:37:16;27.70;95.70
9762;DHT22;4920;49.594;11.022;2023-07-29T15:39:45;27.70;95.40
9762;DHT22;4920;49.594;11.022;2023-07-29T15:42:15;27.60;95.20
9762;DHT22;4920;49.594;11.022;2023-07-29T15:44:44;27.50;94.80
9762;DHT22;4920;49.594;11.022;2023-07-29T15:47:13;27.30;95.10
9762;DHT22;4920;49.594;11.022;2023-07-29T15:49:45;27.20;94.50
9762;DHT22;4920;49.594;11.022;2023-07-29T15:52:14;27.20;94.50
9762;DHT22;4920;49.594;11.022;2023-07-29T15:54:43;27.10;94.30
9762;DHT22;4920;49.594;11.022;2023-07-29T15:57:12;27.10;94.10
9762;DHT22;4920;49.594;11.022;2023-07-29T15:59:42;27.10;94.80
9762;DHT22;4920;49.594;11.022;2023-07-29T16:02:10;27.20;94.60
9762;DHT22;4920;49.594;11.022;2023-07-29T16:04:39;27.30;94.20
9762;DHT22;4920;49.594;11.022;2023-07-29T16:07:08;27.30;93.40